sensor_id;sensor_type;location;lat;lon;timestamp;temperature;humidity
7331;DHT22;3706;49.198;7.064;2023-12-07T00:00:49;0.90;99.90
7331;DHT22;3706;49.198;7.064;2023-12-07T00:04:16;1.10;99.90
7331;DHT22;3706;49.198;7.064;2023-12-07T00:07:41;1.10;99.90
7331;DHT22;3706;49.198;7.064;2023-12-07T00:11:18;1.20;99.90
7331;DHT22;3706;49.198;7.064;2023-12-07T00:14:55;1.20;99.90
7331;DHT22;3706;49.198;7.064;2023-12-07T00:18:23;1.30;99.90
7331;DHT22;3706;49.198;7.064;2023-12-07T00:21:47;1.30;99.90
7331;DHT22;3706;49.198;7.064;2023-12-07T00:25:24;1.40;99.90
7331;DHT22;3706;49.198;7.064;2023-12-07T00:29:01;1.50;99.90
7331;DHT22;3706;49.198;7.064;2023-12-07T00:32:29;1.50;99.90
7331;DHT22;3706;49.198;7.064;2023-12-07T00:35:53;1.60;99.90
7331;DHT22;3706;49.198;7.064;2023-12-07T00:39:30;1.50;99.90
7331;DHT22;3706;49.198;7.064;2023-12-07T00:43:06;1.50;99.90
7331;DHT22;3706;49.198;7.064;2023-12-07T00:46:35;1.60;99.90
7331;DHT22;3706;49.198;7.064;2023-12-07T00:50:00;1.70;99.90
7331;DHT22;3706;49.198;7.064;2023-12-07T00:53:37;1.80;99.90
7331;DHT22;3706;49.198;7.064;2023-12-07T00:57:14;1.80;99.90
7331;DHT22;3706;49.198;7.064;2023-12-07T01:00:41;1.80;99.90
7331;DHT22;3706;49.198;7.064;2023-12-07T01:04:07;1.80;99.90
7331;DHT22;3706;49.198;7.064;2023-12-07T01:07:44;1.70;99.90
7331;DHT22;3706;49.198;7.064;2023-12-07T01:11:22;1.60;99.90
7331;DHT22;3706;49.198;7.064;2023-12-07T01:14:55;1.50;99.90
7331;DHT22;3706;49.198;7.064;2023-12-07T01:18:28;1.40;99.90
7331;DHT22;3706;49.198;7.064;2023-12-07T01:22:08;1.40;99.90
7331;DHT22;3706;49.198;7.064;2023-12-07T01:25:47;1.40;99.90
7331;DHT22;3706;49.198;7.064;2023-12-07T01:29:17;1.50;99.90
7331;DHT22;3706;49.198;7.064;2023-12-07T01:33:19;1.60;99.90
7331;DHT22;3706;49.198;7.064;2023-12-07T01:36:59;1.60;99.90
7331;DHT22;3706;49.198;7.064;2023-12-07T01:40:39;1.60;99.90
7331;DHT22;3706;49.198;7.064;2023-12-07T01:44:12;1.60;99.90
7331;DHT22;3706;49.198;7.064;2023-12-07T01:47:48;1.60;99.90
7331;DHT22;3706;49.198;7.064;2023-12-07T01:51:28;1.60;99.90
7331;DHT22;3706;49.198;7.064;2023-12-07T01:55:09;1.50;99.90
7331;DHT22;3706;49.198;7.064;2023-12-07T01:58:44;1.60;99.90
7331;DHT22;3706;49.198;7.064;2023-12-07T02:02:17;1.60;99.90
7331;DHT22;3706;49.198;7.064;2023-12-07T02:05:58;1.50;99.90
7331;DHT22;3706;49.198;7.064;2023-12-07T02:09:37;1.70;99.90
7331;DHT22;3706;49.198;7.064;2023-12-07T02:13:07;1.80;99.90
7331;DHT22;3706;49.198;7.064;2023-12-07T02:16:40;1.90;99.90
7331;DHT22;3706;49.198;7.064;2023-12-07T02:20:26;1.80;99.90
7331;DHT22;3706;49.198;7.064;2023-12-07T02:24:07;1.70;99.90
7331;DHT22;3706;49.198;7.064;2023-12-07T02:27:39;1.70;99.90
7331;DHT22;3706;49.198;7.064;2023-12-07T02:31:03;1.60;99.90
7331;DHT22;3706;49.198;7.064;2023-12-07T02:34:42;1.70;99.90
7331;DHT22;3706;49.198;7.064;2023-12-07T02:38:22;1.60;99.90
7331;DHT22;3706;49.198;7.064;2023-12-07T02:41:56;1.70;99.90
7331;DHT22;3706;49.198;7.064;2023-12-07T02:45:22;1.70;99.90
7331;DHT22;3706;49.198;7.064;2023-12-07T02:48:59;1.70;99.90
7331;DHT22;3706;49.198;7.064;2023-12-07T02:52:35;1.80;99.90
7331;DHT22;3706;49.198;7.064;2023-12-07T02:56:02;1.80;99.90
7331;DHT22;3706;49.198;7.064;2023-12-07T02:59:27;1.70;99.90
7331;DHT22;3706;49.198;7.064;2023-12-07T03:03:05;1.70;99.90
7331;DHT22;3706;49.198;7.064;2023-12-07T03:06:41;1.60;99.90
7331;DHT22;3706;49.198;7.064;2023-12-07T03:10:08;1.60;99.90
7331;DHT22;3706;49.198;7.064;2023-12-07T03:13:33;1.70;99.90
7331;DHT22;3706;49.198;7.064;2023-12-07T03:17:10;1.80;99.90
7331;DHT22;3706;49.198;7.064;2023-12-07T03:20:48;1.70;99.90
7331;DHT22;3706;49.198;7.064;2023-12-07T03:24:16;1.70;99.90
7331;DHT22;3706;49.198;7.064;2023-12-07T03:27:41;1.80;99.90
7331;DHT22;3706;49.198;7.064;2023-12-07T03:31:17;1.70;99.90
7331;DHT22;3706;49.198;7.064;2023-12-07T03:34:56;1.70;99.90
7331;DHT22;3706;49.198;7.064;2023-12-07T03:38:30;1.60;99.90
7331;DHT22;3706;49.198;7.064;2023-12-07T03:41:59;1.60;99.90
7331;DHT22;3706;49.198;7.064;2023-12-07T03:45:35;1.80;99.90
7331;DHT22;3706;49.198;7.064;2023-12-07T03:49:11;1.90;99.90
7331;DHT22;3706;49.198;7.064;2023-12-07T03:52:39;1.90;99.90
7331;DHT22;3706;49.198;7.064;2023-12-07T03:56:06;1.90;99.90
7331;DHT22;3706;49.198;7.064;2023-12-07T03:59:43;1.80;99.90
7331;DHT22;3706;49.198;7.064;2023-12-07T04:03:25;1.90;99.90
7331;DHT22;3706;49.198;7.064;2023-12-07T04:06:59;1.80;99.90
7331;DHT22;3706;49.198;7.064;2023-12-07T04:10:15;1.60;99.90
7331;DHT22;3706;49.198;7.064;2023-12-07T04:13:44;1.40;99.90
7331;DHT22;3706;49.198;7.064;2023-12-07T04:17:09;1.20;99.90
7331;DHT22;3706;49.198;7.064;2023-12-07T04:20:36;1.10;99.90
7331;DHT22;3706;49.198;7.064;2023-12-07T04:23:56;1.00;99.90
7331;DHT22;3706;49.198;7.064;2023-12-07T04:27:03;0.90;99.90
7331;DHT22;3706;49.198;7.064;2023-12-07T04:30:34;0.90;99.90
7331;DHT22;3706;49.198;7.064;2023-12-07T04:34:11;0.90;99.90
7331;DHT22;3706;49.198;7.064;2023-12-07T04:37:33;0.90;99.90
7331;DHT22;3706;49.198;7.064;2023-12-07T04:40:57;0.90;99.90
7331;DHT22;3706;49.198;7.064;2023-12-07T04:44:34;0.90;99.90
7331;DHT22;3706;49.198;7.064;2023-12-07T04:47:45;0.90;99.90
7331;DHT22;3706;49.198;7.064;2023-12-07T04:51:21;0.90;99.90
7331;DHT22;3706;49.198;7.064;2023-12-07T04:55:04;0.80;99.90
7331;DHT22;3706;49.198;7.064;2023-12-07T04:58:34;0.70;99.90
7331;DHT22;3706;49.198;7.064;2023-12-07T05:01:59;0.70;99.90
7331;DHT22;3706;49.198;7.064;2023-12-07T05:05:37;0.70;99.90
7331;DHT22;3706;49.198;7.064;2023-12-07T05:09:12;0.80;99.90
7331;DHT22;3706;49.198;7.064;2023-12-07T05:12:41;1.00;99.90
7331;DHT22;3706;49.198;7.064;2023-12-07T05:16:18;1.10;99.90
7331;DHT22;3706;49.198;7.064;2023-12-07T05:19:54;1.10;99.90
7331;DHT22;3706;49.198;7.064;2023-12-07T05:23:23;1.10;99.90
7331;DHT22;3706;49.198;7.064;2023-12-07T05:26:47;1.10;99.90
7331;DHT22;3706;49.198;7.064;2023-12-07T05:30:29;1.10;99.90
7331;DHT22;3706;49.198;7.064;2023-12-07T05:33:58;1.20;99.90
7331;DHT22;3706;49.198;7.064;2023-12-07T05:37:25;1.20;99.90
7331;DHT22;3706;49.198;7.064;2023-12-07T05:41:03;1.30;99.90
7331;DHT22;3706;49.198;7.064;2023-12-07T05:44:39;1.20;99.90
7331;DHT22;3706;49.198;7.064;2023-12-07T05:48:06;1.10;99.90
7331;DHT22;3706;49.198;7.064;2023-12-07T05:51:46;1.00;99.90
7331;DHT22;3706;49.198;7.064;2023-12-07T05:55:22;0.90;99.90
7331;DHT22;3706;49.198;7.064;2023-12-07T05:58:51;0.80;99.90
7331;DHT22;3706;49.198;7.064;2023-12-07T06:02:16;0.80;99.90
7331;DHT22;3706;49.198;7.064;2023-12-07T06:05:52;0.70;99.90
7331;DHT22;3706;49.198;7.064;2023-12-07T06:09:28;0.60;99.90
7331;DHT22;3706;49.198;7.064;2023-12-07T06:12:56;0.50;99.90
7331;DHT22;3706;49.198;7.064;2023-12-07T06:16:25;0.50;99.90
7331;DHT22;3706;49.198;7.064;2023-12-07T06:19:50;0.50;99.90
7331;DHT22;3706;49.198;7.064;2023-12-07T06:23:19;0.50;99.90
7331;DHT22;3706;49.198;7.064;2023-12-07T06:26:44;0.40;99.90
7331;DHT22;3706;49.198;7.064;2023-12-07T06:30:20;0.40;99.90
7331;DHT22;3706;49.198;7.064;2023-12-07T06:34:09;0.40;99.90
7331;DHT22;3706;49.198;7.064;2023-12-07T06:37:38;0.60;99.90
7331;DHT22;3706;49.198;7.064;2023-12-07T06:41:15;0.60;99.90
7331;DHT22;3706;49.198;7.064;2023-12-07T06:44:50;0.50;99.90
7331;DHT22;3706;49.198;7.064;2023-12-07T06:48:30;0.60;99.90
7331;DHT22;3706;49.198;7.064;2023-12-07T06:52:08;0.50;99.90
7331;DHT22;3706;49.198;7.064;2023-12-07T06:55:46;0.50;99.90
7331;DHT22;3706;49.198;7.064;2023-12-07T06:59:13;0.40;99.90
7331;DHT22;3706;49.198;7.064;2023-12-07T07:02:49;0.50;99.90
7331;DHT22;3706;49.198;7.064;2023-12-07T07:06:26;0.30;99.90
7331;DHT22;3706;49.198;7.064;2023-12-07T07:09:54;0.30;99.90
7331;DHT22;3706;49.198;7.064;2023-12-07T07:13:20;0.30;99.90
7331;DHT22;3706;49.198;7.064;2023-12-07T07:16:57;0.20;99.90
7331;DHT22;3706;49.198;7.064;2023-12-07T07:20:33;0.20;99.90
7331;DHT22;3706;49.198;7.064;2023-12-07T07:24:01;0.30;99.90
7331;DHT22;3706;49.198;7.064;2023-12-07T07:27:27;0.40;99.90
7331;DHT22;3706;49.198;7.064;2023-12-07T07:31:04;0.40;99.90
7331;DHT22;3706;49.198;7.064;2023-12-07T07:34:40;0.40;99.90
7331;DHT22;3706;49.198;7.064;2023-12-07T07:38:07;0.50;99.90
7331;DHT22;3706;49.198;7.064;2023-12-07T07:41:32;0.60;99.90
7331;DHT22;3706;49.198;7.064;2023-12-07T07:45:10;0.60;99.90
7331;DHT22;3706;49.198;7.064;2023-12-07T07:48:47;0.50;99.90
7331;DHT22;3706;49.198;7.064;2023-12-07T07:52:14;0.50;99.90
7331;DHT22;3706;49.198;7.064;2023-12-07T07:55:39;0.50;99.90
7331;DHT22;3706;49.198;7.064;2023-12-07T07:59:16;0.40;99.90
7331;DHT22;3706;49.198;7.064;2023-12-07T08:02:54;0.50;99.90
7331;DHT22;3706;49.198;7.064;2023-12-07T08:06:21;0.50;99.90
7331;DHT22;3706;49.198;7.064;2023-12-07T08:09:46;0.50;99.90
7331;DHT22;3706;49.198;7.064;2023-12-07T08:13:22;0.50;99.90
7331;DHT22;3706;49.198;7.064;2023-12-07T08:16:58;0.60;99.90
7331;DHT22;3706;49.198;7.064;2023-12-07T08:20:27;0.70;99.90
7331;DHT22;3706;49.198;7.064;2023-12-07T08:23:52;0.80;99.90
7331;DHT22;3706;49.198;7.064;2023-12-07T08:27:29;0.80;99.90
7331;DHT22;3706;49.198;7.064;2023-12-07T08:31:05;0.80;99.90
7331;DHT22;3706;49.198;7.064;2023-12-07T08:34:33;1.10;99.90
7331;DHT22;3706;49.198;7.064;2023-12-07T08:37:59;1.30;99.90
7331;DHT22;3706;49.198;7.064;2023-12-07T08:41:36;1.40;99.90
7331;DHT22;3706;49.198;7.064;2023-12-07T08:45:12;1.50;99.90
7331;DHT22;3706;49.198;7.064;2023-12-07T08:48:39;1.60;99.90
7331;DHT22;3706;49.198;7.064;2023-12-07T08:52:04;1.70;99.90
7331;DHT22;3706;49.198;7.064;2023-12-07T08:55:42;1.80;99.90
7331;DHT22;3706;49.198;7.064;2023-12-07T08:59:19;1.70;99.90
7331;DHT22;3706;49.198;7.064;2023-12-07T09:02:46;1.90;99.90
7331;DHT22;3706;49.198;7.064;2023-12-07T09:06:11;1.90;99.90
7331;DHT22;3706;49.198;7.064;2023-12-07T09:09:48;2.00;99.90
7331;DHT22;3706;49.198;7.064;2023-12-07T09:13:26;2.10;99.90
7331;DHT22;3706;49.198;7.064;2023-12-07T09:16:54;2.30;99.90
7331;DHT22;3706;49.198;7.064;2023-12-07T09:20:18;2.30;99.90
7331;DHT22;3706;49.198;7.064;2023-12-07T09:23:55;2.30;99.90
7331;DHT22;3706;49.198;7.064;2023-12-07T09:27:31;2.10;99.90
7331;DHT22;3706;49.198;7.064;2023-12-07T09:31:00;2.00;99.90
7331;DHT22;3706;49.198;7.064;2023-12-07T09:34:25;2.10;99.90
7331;DHT22;3706;49.198;7.064;2023-12-07T09:38:01;2.20;99.90
7331;DHT22;3706;49.198;7.064;2023-12-07T09:41:39;2.10;99.90
7331;DHT22;3706;49.198;7.064;2023-12-07T09:45:07;2.10;99.90
7331;DHT22;3706;49.198;7.064;2023-12-07T09:48:35;2.20;99.90
7331;DHT22;3706;49.198;7.064;2023-12-07T09:52:14;2.30;99.90
7331;DHT22;3706;49.198;7.064;2023-12-07T09:55:51;2.50;99.90
7331;DHT22;3706;49.198;7.064;2023-12-07T09:59:18;2.50;99.90
7331;DHT22;3706;49.198;7.064;2023-12-07T10:02:45;2.60;99.90
7331;DHT22;3706;49.198;7.064;2023-12-07T10:06:23;2.70;99.90
7331;DHT22;3706;49.198;7.064;2023-12-07T10:10:00;2.90;99.90
7331;DHT22;3706;49.198;7.064;2023-12-07T10:13:29;3.00;99.90
7331;DHT22;3706;49.198;7.064;2023-12-07T10:16:54;3.20;99.90
7331;DHT22;3706;49.198;7.064;2023-12-07T10:20:32;3.40;99.90
7331;DHT22;3706;49.198;7.064;2023-12-07T10:24:10;3.50;99.90
7331;DHT22;3706;49.198;7.064;2023-12-07T10:27:38;3.30;99.90
7331;DHT22;3706;49.198;7.064;2023-12-07T10:31:04;3.30;99.90
7331;DHT22;3706;49.198;7.064;2023-12-07T10:34:45;3.20;99.90
7331;DHT22;3706;49.198;7.064;2023-12-07T10:38:21;3.20;99.90
7331;DHT22;3706;49.198;7.064;2023-12-07T10:41:50;3.20;99.90
7331;DHT22;3706;49.198;7.064;2023-12-07T10:45:17;3.20;99.90
7331;DHT22;3706;49.198;7.064;2023-12-07T10:48:59;3.30;99.90
7331;DHT22;3706;49.198;7.064;2023-12-07T10:52:36;3.40;99.90
7331;DHT22;3706;49.198;7.064;2023-12-07T10:56:04;3.50;99.90
7331;DHT22;3706;49.198;7.064;2023-12-07T10:59:32;3.60;99.90
7331;DHT22;3706;49.198;7.064;2023-12-07T11:03:11;3.80;99.90
7331;DHT22;3706;49.198;7.064;2023-12-07T11:06:48;4.20;99.90
7331;DHT22;3706;49.198;7.064;2023-12-07T11:10:18;4.50;99.90
7331;DHT22;3706;49.198;7.064;2023-12-07T11:13:49;4.50;99.90
7331;DHT22;3706;49.198;7.064;2023-12-07T11:17:29;4.40;99.90
7331;DHT22;3706;49.198;7.064;2023-12-07T11:21:05;4.40;99.90
7331;DHT22;3706;49.198;7.064;2023-12-07T11:24:33;4.70;99.90
7331;DHT22;3706;49.198;7.064;2023-12-07T11:28:02;4.80;99.90
7331;DHT22;3706;49.198;7.064;2023-12-07T11:31:40;4.70;99.90
7331;DHT22;3706;49.198;7.064;2023-12-07T11:35:18;4.70;99.90
7331;DHT22;3706;49.198;7.064;2023-12-07T11:42:28;4.50;99.90
7331;DHT22;3706;49.198;7.064;2023-12-07T11:46:05;4.50;99.90
7331;DHT22;3706;49.198;7.064;2023-12-07T11:49:42;4.20;99.90
7331;DHT22;3706;49.198;7.064;2023-12-07T11:53:11;4.30;99.90
7331;DHT22;3706;49.198;7.064;2023-12-07T11:56:35;4.50;99.90
7331;DHT22;3706;49.198;7.064;2023-12-07T12:00:13;4.60;99.90
7331;DHT22;3706;49.198;7.064;2023-12-07T12:03:50;4.70;99.90
7331;DHT22;3706;49.198;7.064;2023-12-07T12:07:18;4.60;99.90
7331;DHT22;3706;49.198;7.064;2023-12-07T12:10:45;4.40;99.90
7331;DHT22;3706;49.198;7.064;2023-12-07T12:14:21;4.10;99.90
7331;DHT22;3706;49.198;7.064;2023-12-07T12:17:58;4.00;99.90
7331;DHT22;3706;49.198;7.064;2023-12-07T12:21:26;4.10;99.90
7331;DHT22;3706;49.198;7.064;2023-12-07T12:24:50;4.10;99.90
7331;DHT22;3706;49.198;7.064;2023-12-07T12:28:29;4.20;99.90
7331;DHT22;3706;49.198;7.064;2023-12-07T12:32:08;4.00;99.90
7331;DHT22;3706;49.198;7.064;2023-12-07T12:35:36;4.00;99.90
7331;DHT22;3706;49.198;7.064;2023-12-07T12:39:00;3.90;99.90
7331;DHT22;3706;49.198;7.064;2023-12-07T12:42:39;3.80;99.90
7331;DHT22;3706;49.198;7.064;2023-12-07T12:46:17;3.70;99.90
7331;DHT22;3706;49.198;7.064;2023-12-07T12:49:44;3.60;99.90
7331;DHT22;3706;49.198;7.064;2023-12-07T12:53:10;3.60;99.90
7331;DHT22;3706;49.198;7.064;2023-12-07T12:56:49;3.60;99.90
7331;DHT22;3706;49.198;7.064;2023-12-07T13:00:25;3.50;99.90
7331;DHT22;3706;49.198;7.064;2023-12-07T13:03:54;3.40;99.90
7331;DHT22;3706;49.198;7.064;2023-12-07T13:07:21;3.40;99.90
7331;DHT22;3706;49.198;7.064;2023-12-07T13:10:59;3.50;99.90
7331;DHT22;3706;49.198;7.064;2023-12-07T13:14:36;3.50;99.90
7331;DHT22;3706;49.198;7.064;2023-12-07T13:18:05;3.40;99.90
7331;DHT22;3706;49.198;7.064;2023-12-07T13:21:31;3.40;99.90
7331;DHT22;3706;49.198;7.064;2023-12-07T13:25:07;3.40;99.90
7331;DHT22;3706;49.198;7.064;2023-12-07T13:28:44;3.50;99.90
7331;DHT22;3706;49.198;7.064;2023-12-07T13:32:11;3.50;99.90
7331;DHT22;3706;49.198;7.064;2023-12-07T13:35:35;3.60;99.90
7331;DHT22;3706;49.198;7.064;2023-12-07T13:39:13;3.60;99.90
7331;DHT22;3706;49.198;7.064;2023-12-07T13:42:50;3.70;99.90
7331;DHT22;3706;49.198;7.064;2023-12-07T13:46:18;3.90;99.90
7331;DHT22;3706;49.198;7.064;2023-12-07T13:49:42;3.90;99.90
7331;DHT22;3706;49.198;7.064;2023-12-07T13:53:20;3.90;99.90
7331;DHT22;3706;49.198;7.064;2023-12-07T13:56:58;3.90;99.90
7331;DHT22;3706;49.198;7.064;2023-12-07T14:00:25;3.90;99.90
7331;DHT22;3706;49.198;7.064;2023-12-07T14:03:51;3.80;99.90
7331;DHT22;3706;49.198;7.064;2023-12-07T14:07:27;3.80;99.90
7331;DHT22;3706;49.198;7.064;2023-12-07T14:11:04;3.70;99.90
7331;DHT22;3706;49.198;7.064;2023-12-07T14:14:32;3.60;99.90
7331;DHT22;3706;49.198;7.064;2023-12-07T14:17:57;3.50;99.90
7331;DHT22;3706;49.198;7.064;2023-12-07T14:21:34;3.50;99.90
7331;DHT22;3706;49.198;7.064;2023-12-07T14:25:10;3.40;99.90
7331;DHT22;3706;49.198;7.064;2023-12-07T14:28:38;3.30;99.90
7331;DHT22;3706;49.198;7.064;2023-12-07T14:32:04;3.30;99.90
7331;DHT22;3706;49.198;7.064;2023-12-07T14:35:41;3.30;99.90
7331;DHT22;3706;49.198;7.064;2023-12-07T14:39:17;3.30;99.90
7331;DHT22;3706;49.198;7.064;2023-12-07T14:42:45;3.30;99.90
7331;DHT22;3706;49.198;7.064;2023-12-07T14:46:10;3.30;99.90
7331;DHT22;3706;49.198;7.064;2023-12-07T14:49:48;3.20;99.90
7331;DHT22;3706;49.198;7.064;2023-12-07T14:53:24;3.20;99.90
7331;DHT22;3706;49.198;7.064;2023-12-07T14:56:52;3.20;99.90
7331;DHT22;3706;49.198;7.064;2023-12-07T15:00:17;3.10;99.90
7331;DHT22;3706;49.198;7.064;2023-12-07T15:03:55;3.10;99.90
7331;DHT22;3706;49.198;7.064;2023-12-07T15:07:32;3.00;99.90
7331;DHT22;3706;49.198;7.064;2023-12-07T15:10:59;3.00;99.90
7331;DHT22;3706;49.198;7.064;2023-12-07T15:14:24;3.10;99.90
7331;DHT22;3706;49.198;7.064;2023-12-07T15:18:00;2.90;99.90
7331;DHT22;3706;49.198;7.064;2023-12-07T15:21:37;2.80;99.90
7331;DHT22;3706;49.198;7.064;2023-12-07T15:25:06;2.70;99.90
7331;DHT22;3706;49.198;7.064;2023-12-07T15:28:30;2.70;99.90
7331;DHT22;3706;49.198;7.064;2023-12-07T15:32:08;2.50;99.90
7331;DHT22;3706;49.198;7.064;2023-12-07T15:35:45;2.50;99.90
7331;DHT22;3706;49.198;7.064;2023-12-07T15:39:13;2.40;99.90
7331;DHT22;3706;49.198;7.064;2023-12-07T15:42:39;2.20;99.90
7331;DHT22;3706;49.198;7.064;2023-12-07T15:46:17;2.20;99.90
7331;DHT22;3706;49.198;7.064;2023-12-07T15:49:56;2.20;99.90
7331;DHT22;3706;49.198;7.064;2023-12-07T15:53:23;2.20;99.90
7331;DHT22;3706;49.198;7.064;2023-12-07T15:56:48;2.20;99.90
7331;DHT22;3706;49.198;7.064;2023-12-07T16:00:26;2.20;99.90
7331;DHT22;3706;49.198;7.064;2023-12-07T16:04:02;2.10;99.90
7331;DHT22;3706;49.198;7.064;2023-12-07T16:07:29;2.10;99.90
7331;DHT22;3706;49.198;7.064;2023-12-07T16:10:54;2.00;99.90
7331;DHT22;3706;49.198;7.064;2023-12-07T16:14:31;2.00;99.90
7331;DHT22;3706;49.198;7.064;2023-12-07T16:18:09;2.10;99.90
7331;DHT22;3706;49.198;7.064;2023-12-07T16:21:37;2.00;99.90
7331;DHT22;3706;49.198;7.064;2023-12-07T16:25:01;1.90;99.90
7331;DHT22;3706;49.198;7.064;2023-12-07T16:28:38;1.80;99.90
7331;DHT22;3706;49.198;7.064;2023-12-07T16:32:14;1.80;99.90
7331;DHT22;3706;49.198;7.064;2023-12-07T16:35:43;1.80;99.90
7331;DHT22;3706;49.198;7.064;2023-12-07T16:39:08;1.70;99.90
7331;DHT22;3706;49.198;7.064;2023-12-07T16:42:45;1.70;99.90
7331;DHT22;3706;49.198;7.064;2023-12-07T16:46:22;1.70;99.90
7331;DHT22;3706;49.198;7.064;2023-12-07T16:49:50;1.70;99.90
7331;DHT22;3706;49.198;7.064;2023-12-07T16:53:16;1.70;99.90
7331;DHT22;3706;49.198;7.064;2023-12-07T16:56:53;1.70;99.90
7331;DHT22;3706;49.198;7.064;2023-12-07T17:00:30;1.60;99.90
7331;DHT22;3706;49.198;7.064;2023-12-07T17:03:58;1.60;99.90
7331;DHT22;3706;49.198;7.064;2023-12-07T17:07:22;1.50;99.90
7331;DHT22;3706;49.198;7.064;2023-12-07T17:10:38;1.40;99.90
7331;DHT22;3706;49.198;7.064;2023-12-07T17:14:12;1.30;99.90
7331;DHT22;3706;49.198;7.064;2023-12-07T17:17:39;1.40;99.90
7331;DHT22;3706;49.198;7.064;2023-12-07T17:21:04;1.40;99.90
7331;DHT22;3706;49.198;7.064;2023-12-07T17:24:41;1.50;99.90
7331;DHT22;3706;49.198;7.064;2023-12-07T17:28:19;1.60;99.90
7331;DHT22;3706;49.198;7.064;2023-12-07T17:31:46;1.60;99.90
7331;DHT22;3706;49.198;7.064;2023-12-07T17:35:11;1.60;99.90
7331;DHT22;3706;49.198;7.064;2023-12-07T17:38:47;1.70;99.90
7331;DHT22;3706;49.198;7.064;2023-12-07T17:42:26;1.70;99.90
7331;DHT22;3706;49.198;7.064;2023-12-07T17:45:54;1.70;99.90
7331;DHT22;3706;49.198;7.064;2023-12-07T17:49:19;1.70;99.90
7331;DHT22;3706;49.198;7.064;2023-12-07T17:52:55;1.70;99.90
7331;DHT22;3706;49.198;7.064;2023-12-07T17:56:32;1.60;99.90
7331;DHT22;3706;49.198;7.064;2023-12-07T18:00:00;1.70;99.90
7331;DHT22;3706;49.198;7.064;2023-12-07T18:03:26;1.70;99.90
7331;DHT22;3706;49.198;7.064;2023-12-07T18:07:02;1.70;99.90
7331;DHT22;3706;49.198;7.064;2023-12-07T18:10:39;1.80;99.90
7331;DHT22;3706;49.198;7.064;2023-12-07T18:14:06;1.80;99.90
7331;DHT22;3706;49.198;7.064;2023-12-07T18:17:31;1.80;99.90
7331;DHT22;3706;49.198;7.064;2023-12-07T18:21:09;1.90;99.90
7331;DHT22;3706;49.198;7.064;2023-12-07T18:24:45;1.80;99.90
7331;DHT22;3706;49.198;7.064;2023-12-07T18:28:12;1.80;99.90
7331;DHT22;3706;49.198;7.064;2023-12-07T18:31:37;1.70;99.90
7331;DHT22;3706;49.198;7.064;2023-12-07T18:35:14;1.70;99.90
7331;DHT22;3706;49.198;7.064;2023-12-07T18:38:52;1.70;99.90
7331;DHT22;3706;49.198;7.064;2023-12-07T18:42:19;1.70;99.90
7331;DHT22;3706;49.198;7.064;2023-12-07T18:45:44;1.60;99.90
7331;DHT22;3706;49.198;7.064;2023-12-07T18:49:20;1.60;99.90
7331;DHT22;3706;49.198;7.064;2023-12-07T18:52:57;1.60;99.90
7331;DHT22;3706;49.198;7.064;2023-12-07T18:56:25;1.50;99.90
7331;DHT22;3706;49.198;7.064;2023-12-07T18:59:50;1.50;99.90
7331;DHT22;3706;49.198;7.064;2023-12-07T19:03:27;1.50;99.90
7331;DHT22;3706;49.198;7.064;2023-12-07T19:07:03;1.50;99.90
7331;DHT22;3706;49.198;7.064;2023-12-07T19:10:31;1.50;99.90
7331;DHT22;3706;49.198;7.064;2023-12-07T19:13:57;1.50;99.90
7331;DHT22;3706;49.198;7.064;2023-12-07T19:17:34;1.70;99.90
7331;DHT22;3706;49.198;7.064;2023-12-07T19:21:10;1.60;99.90
7331;DHT22;3706;49.198;7.064;2023-12-07T19:24:37;1.60;99.90
7331;DHT22;3706;49.198;7.064;2023-12-07T19:28:02;1.50;99.90
7331;DHT22;3706;49.198;7.064;2023-12-07T19:31:42;1.50;99.90
7331;DHT22;3706;49.198;7.064;2023-12-07T19:35:19;1.50;99.90
7331;DHT22;3706;49.198;7.064;2023-12-07T19:38:46;1.50;99.90
7331;DHT22;3706;49.198;7.064;2023-12-07T19:42:10;1.50;99.90
7331;DHT22;3706;49.198;7.064;2023-12-07T19:45:48;1.40;99.90
7331;DHT22;3706;49.198;7.064;2023-12-07T19:49:28;1.50;99.90
7331;DHT22;3706;49.198;7.064;2023-12-07T19:52:57;1.60;99.90
7331;DHT22;3706;49.198;7.064;2023-12-07T19:56:22;1.70;99.90
7331;DHT22;3706;49.198;7.064;2023-12-07T19:59:58;1.60;99.90
7331;DHT22;3706;49.198;7.064;2023-12-07T20:03:37;1.60;99.90
7331;DHT22;3706;49.198;7.064;2023-12-07T20:07:08;1.60;99.90
7331;DHT22;3706;49.198;7.064;2023-12-07T20:10:33;1.60;99.90
7331;DHT22;3706;49.198;7.064;2023-12-07T20:14:10;1.60;99.90
7331;DHT22;3706;49.198;7.064;2023-12-07T20:17:46;1.60;99.90
7331;DHT22;3706;49.198;7.064;2023-12-07T20:21:14;1.70;99.90
7331;DHT22;3706;49.198;7.064;2023-12-07T20:24:40;1.70;99.90
7331;DHT22;3706;49.198;7.064;2023-12-07T20:28:17;1.80;99.90
7331;DHT22;3706;49.198;7.064;2023-12-07T20:31:54;1.80;99.90
7331;DHT22;3706;49.198;7.064;2023-12-07T20:35:22;1.80;99.90
7331;DHT22;3706;49.198;7.064;2023-12-07T20:38:47;1.80;99.90
7331;DHT22;3706;49.198;7.064;2023-12-07T20:42:25;1.80;99.90
7331;DHT22;3706;49.198;7.064;2023-12-07T20:46:02;1.80;99.90
7331;DHT22;3706;49.198;7.064;2023-12-07T20:49:29;1.80;99.90
7331;DHT22;3706;49.198;7.064;2023-12-07T20:52:53;1.80;99.90
7331;DHT22;3706;49.198;7.064;2023-12-07T20:56:31;1.90;99.90
7331;DHT22;3706;49.198;7.064;2023-12-07T21:00:11;1.90;99.90
7331;DHT22;3706;49.198;7.064;2023-12-07T21:03:38;1.90;99.90
7331;DHT22;3706;49.198;7.064;2023-12-07T21:07:05;1.90;99.90
7331;DHT22;3706;49.198;7.064;2023-12-07T21:10:41;1.90;99.90
7331;DHT22;3706;49.198;7.064;2023-12-07T21:14:18;2.00;99.90
7331;DHT22;3706;49.198;7.064;2023-12-07T21:17:46;2.10;99.90
7331;DHT22;3706;49.198;7.064;2023-12-07T21:21:12;2.10;99.90
7331;DHT22;3706;49.198;7.064;2023-12-07T21:24:48;2.10;99.90
7331;DHT22;3706;49.198;7.064;2023-12-07T21:28:25;2.20;99.90
7331;DHT22;3706;49.198;7.064;2023-12-07T21:31:53;2.20;99.90
7331;DHT22;3706;49.198;7.064;2023-12-07T21:35:19;2.20;99.90
7331;DHT22;3706;49.198;7.064;2023-12-07T21:38:55;2.30;99.90
7331;DHT22;3706;49.198;7.064;2023-12-07T21:42:32;2.20;99.90
7331;DHT22;3706;49.198;7.064;2023-12-07T21:45:59;2.20;99.90
7331;DHT22;3706;49.198;7.064;2023-12-07T21:49:23;2.30;99.90
7331;DHT22;3706;49.198;7.064;2023-12-07T21:53:01;2.30;99.90
7331;DHT22;3706;49.198;7.064;2023-12-07T21:56:38;2.40;99.90
7331;DHT22;3706;49.198;7.064;2023-12-07T22:00:06;2.30;99.90
7331;DHT22;3706;49.198;7.064;2023-12-07T22:03:34;2.30;99.90
7331;DHT22;3706;49.198;7.064;2023-12-07T22:07:11;2.30;99.90
7331;DHT22;3706;49.198;7.064;2023-12-07T22:10:49;2.30;99.90
7331;DHT22;3706;49.198;7.064;2023-12-07T22:14:16;2.40;99.90
7331;DHT22;3706;49.198;7.064;2023-12-07T22:17:41;2.40;99.90
7331;DHT22;3706;49.198;7.064;2023-12-07T22:21:17;2.40;99.90
7331;DHT22;3706;49.198;7.064;2023-12-07T22:24:54;2.40;99.90
7331;DHT22;3706;49.198;7.064;2023-12-07T22:28:23;2.40;99.90
7331;DHT22;3706;49.198;7.064;2023-12-07T22:31:47;2.40;99.90
7331;DHT22;3706;49.198;7.064;2023-12-07T22:35:24;2.50;99.90
7331;DHT22;3706;49.198;7.064;2023-12-07T22:39:00;2.40;99.90
7331;DHT22;3706;49.198;7.064;2023-12-07T22:42:28;2.40;99.90
7331;DHT22;3706;49.198;7.064;2023-12-07T22:45:54;2.40;99.90
7331;DHT22;3706;49.198;7.064;2023-12-07T22:49:30;2.40;99.90
7331;DHT22;3706;49.198;7.064;2023-12-07T22:53:07;2.40;99.90
7331;DHT22;3706;49.198;7.064;2023-12-07T22:56:34;2.40;99.90
7331;DHT22;3706;49.198;7.064;2023-12-07T22:59:58;2.40;99.90
7331;DHT22;3706;49.198;7.064;2023-12-07T23:03:36;2.40;99.90
7331;DHT22;3706;49.198;7.064;2023-12-07T23:07:13;2.50;99.90
7331;DHT22;3706;49.198;7.064;2023-12-07T23:10:40;2.40;99.90
7331;DHT22;3706;49.198;7.064;2023-12-07T23:14:05;2.40;99.90
7331;DHT22;3706;49.198;7.064;2023-12-07T23:17:42;2.50;99.90
7331;DHT22;3706;49.198;7.064;2023-12-07T23:21:20;2.60;99.90
7331;DHT22;3706;49.198;7.064;2023-12-07T23:24:47;2.50;99.90
7331;DHT22;3706;49.198;7.064;2023-12-07T23:28:12;2.50;99.90